Time;durP1;ratioP1;P1;durP2;ratioP2;P2;SDS_P1;SDS_P2;PMS_P1;PMS_P2;Temp;Humidity;BMP_temperature;BMP_pressure;BME280_temperature;BME280_humidity;BME280_pressure;Samples;Min_cycle;Max_cycle;Signal;HPM_P1;HPM_P2
2021/12/07 00:00:42;;;;;;;12.52;6.93;;;;;;;;;;4828440;29;20054;-76
2021/12/07 00:03:08;;;;;;;15.55;7.80;;;;;;;;;;4830428;29;20038;-76
2021/12/07 00:05:34;;;;;;;11.82;6.57;;;;;;;;;;4828539;29;20046;-77
2021/12/07 00:08:01;;;;;;;9.48;4.93;;;;;;;;;;4829885;29;20041;-76
2021/12/07 00:10:27;;;;;;;11.35;5.40;;;;;;;;;;4830163;29;20086;-76
2021/12/07 00:12:53;;;;;;;6.32;3.17;;;;;;;;;;4830754;29;20034;-76
2021/12/07 00:15:22;;;;;;;7.43;3.20;;;;;;;;;;4830875;29;20126;-76
2021/12/07 00:17:48;;;;;;;9.05;3.80;;;;;;;;;;4831493;29;20431;-76
2021/12/07 00:20:16;;;;;;;9.98;4.15;;;;;;;;;;4833094;29;20103;-76
2021/12/07 00:22:43;;;;;;;9.10;4.28;;;;;;;;;;4831691;29;20037;-76
2021/12/07 00:25:10;;;;;;;9.18;4.55;;;;;;;;;;4834420;29;20034;-76
2021/12/07 00:27:36;;;;;;;10.63;5.05;;;;;;;;;;4833228;29;20042;-76
2021/12/07 00:30:04;;;;;;;8.98;3.90;;;;;;;;;;4831683;29;20045;-76
2021/12/07 00:32:33;;;;;;;9.27;5.05;;;;;;;;;;4832560;29;20038;-77
2021/12/07 00:37:47;;;;;;;9.45;5.28;;;;;;;;;;4836493;29;20045;-76
2021/12/07 00:40:15;;;;;;;10.40;6.28;;;;;;;;;;4830426;29;20038;-76
2021/12/07 00:42:41;;;;;;;10.27;5.32;;;;;;;;;;4833765;29;20475;-77
2021/12/07 00:45:08;;;;;;;9.77;5.28;;;;;;;;;;4832443;29;20150;-76
2021/12/07 00:47:34;;;;;;;11.60;6.28;;;;;;;;;;4830966;29;20530;-76
2021/12/07 00:50:00;;;;;;;9.80;4.97;;;;;;;;;;4833570;29;20048;-76
2021/12/07 00:52:26;;;;;;;10.10;5.05;;;;;;;;;;4835747;29;20034;-76
2021/12/07 00:54:52;;;;;;;10.73;5.43;;;;;;;;;;4831847;29;20088;-76
2021/12/07 00:57:20;;;;;;;12.20;6.63;;;;;;;;;;4835220;29;20075;-76
2021/12/07 00:59:46;;;;;;;10.85;6.60;;;;;;;;;;4832381;29;20561;-76
2021/12/07 01:02:13;;;;;;;15.85;7.43;;;;;;;;;;4832503;29;20136;-76
2021/12/07 01:04:40;;;;;;;10.68;6.60;;;;;;;;;;4829913;29;20053;-76
2021/12/07 01:07:17;;;;;;;13.05;6.28;;;;;;;;;;4831338;29;20066;-76
2021/12/07 01:26:12;;;;;;;9.20;4.18;;;;;;;;;;4835455;29;20045;-76
2021/12/07 01:28:43;;;;;;;7.75;4.10;;;;;;;;;;4830132;29;20030;-76
2021/12/07 01:31:29;;;;;;;11.20;4.78;;;;;;;;;;4833117;29;20083;-76
2021/12/07 01:44:50;;;;;;;11.35;5.57;;;;;;;;;;4840091;29;20500;-76
2021/12/07 01:47:34;;;;;;;8.85;5.05;;;;;;;;;;4839413;29;20461;-76
2021/12/07 02:00:44;;;;;;;8.25;4.25;;;;;;;;;;4833429;29;20095;-76
2021/12/07 02:03:10;;;;;;;7.90;4.05;;;;;;;;;;4830804;29;20050;-76
2021/12/07 02:05:36;;;;;;;8.98;5.35;;;;;;;;;;4832424;29;20507;-76
2021/12/07 02:08:03;;;;;;;10.45;5.38;;;;;;;;;;4832260;29;20365;-76
2021/12/07 02:10:31;;;;;;;9.93;5.32;;;;;;;;;;4832154;29;20107;-76
2021/12/07 02:13:04;;;;;;;9.18;4.40;;;;;;;;;;4829515;29;20041;-76
2021/12/07 02:15:30;;;;;;;9.15;5.07;;;;;;;;;;4834674;29;20716;-76
2021/12/07 02:17:56;;;;;;;11.02;5.55;;;;;;;;;;4829204;29;20400;-76
2021/12/07 02:20:24;;;;;;;9.75;4.90;;;;;;;;;;4833785;29;20094;-76
2021/12/07 02:22:50;;;;;;;9.05;4.22;;;;;;;;;;4830814;29;20038;-76
2021/12/07 02:25:17;;;;;;;8.57;4.38;;;;;;;;;;4829472;29;20677;-76
2021/12/07 02:27:45;;;;;;;10.00;4.72;;;;;;;;;;4834192;29;20034;-76
2021/12/07 02:30:13;;;;;;;10.48;5.63;;;;;;;;;;4831981;29;20042;-77
2021/12/07 02:32:40;;;;;;;10.98;5.90;;;;;;;;;;4833844;29;20105;-76
2021/12/07 02:35:07;;;;;;;11.88;6.18;;;;;;;;;;4830142;29;20139;-76
2021/12/07 02:37:37;;;;;;;10.52;5.60;;;;;;;;;;4831867;29;20117;-76
2021/12/07 02:40:07;;;;;;;10.75;5.80;;;;;;;;;;4831589;29;20037;-76
2021/12/07 02:42:33;;;;;;;11.95;6.25;;;;;;;;;;4833486;29;20034;-76
2021/12/07 02:44:59;;;;;;;13.57;5.22;;;;;;;;;;4828835;29;20042;-76
2021/12/07 02:47:26;;;;;;;12.32;5.63;;;;;;;;;;4830521;29;20429;-76
2021/12/07 02:49:52;;;;;;;9.68;4.80;;;;;;;;;;4829967;29;20034;-76
2021/12/07 02:52:18;;;;;;;9.30;4.93;;;;;;;;;;4832759;29;20044;-76
2021/12/07 02:54:46;;;;;;;13.20;6.00;;;;;;;;;;4830865;29;20034;-76
2021/12/07 02:57:12;;;;;;;11.88;5.32;;;;;;;;;;4828441;29;20122;-76
2021/12/07 02:59:43;;;;;;;9.48;5.53;;;;;;;;;;4834587;29;20140;-76
2021/12/07 03:02:11;;;;;;;8.88;4.90;;;;;;;;;;4838686;29;20034;-76
2021/12/07 03:04:44;;;;;;;13.73;6.65;;;;;;;;;;4835989;29;20042;-76
2021/12/07 03:26:15;;;;;;;10.52;5.97;;;;;;;;;;4838942;29;20110;-76
2021/12/07 03:28:42;;;;;;;11.10;5.00;;;;;;;;;;4833601;29;20050;-76
2021/12/07 03:31:09;;;;;;;11.32;5.13;;;;;;;;;;4834497;29;20034;-76
2021/12/07 03:33:35;;;;;;;12.32;5.35;;;;;;;;;;4832696;29;20034;-76
2021/12/07 03:36:02;;;;;;;8.55;4.30;;;;;;;;;;4833854;29;20053;-76
2021/12/07 03:38:28;;;;;;;13.27;4.95;;;;;;;;;;4837971;29;20048;-76
2021/12/07 03:40:54;;;;;;;12.50;5.10;;;;;;;;;;4838344;29;20038;-76
2021/12/07 03:43:20;;;;;;;10.65;5.43;;;;;;;;;;4838181;29;20034;-76
2021/12/07 03:45:47;;;;;;;13.15;5.85;;;;;;;;;;4836136;29;20051;-77
2021/12/07 03:48:13;;;;;;;14.05;7.03;;;;;;;;;;4829326;29;20030;-76
2021/12/07 03:50:40;;;;;;;9.43;5.20;;;;;;;;;;4828384;29;20692;-76
2021/12/07 03:53:06;;;;;;;13.20;7.40;;;;;;;;;;4833180;29;20705;-76
2021/12/07 03:55:32;;;;;;;15.10;6.93;;;;;;;;;;4832060;29;20449;-76
2021/12/07 03:57:58;;;;;;;10.02;6.65;;;;;;;;;;4835401;29;20030;-76
2021/12/07 04:00:25;;;;;;;13.02;7.53;;;;;;;;;;4836121;29;20165;-76
2021/12/07 04:02:53;;;;;;;10.30;5.85;;;;;;;;;;4834013;29;20090;-76
2021/12/07 04:05:21;;;;;;;14.27;7.72;;;;;;;;;;4833551;29;20041;-76
2021/12/07 04:07:47;;;;;;;12.25;7.32;;;;;;;;;;4831066;29;20030;-75
2021/12/07 04:10:14;;;;;;;13.48;6.93;;;;;;;;;;4834584;29;20045;-76
2021/12/07 04:12:40;;;;;;;12.13;7.22;;;;;;;;;;4832224;29;20750;-76
2021/12/07 04:15:08;;;;;;;13.60;8.45;;;;;;;;;;4838269;29;20038;-76
2021/12/07 04:17:34;;;;;;;12.40;5.32;;;;;;;;;;4838087;29;20480;-76
2021/12/07 04:20:01;;;;;;;9.57;5.03;;;;;;;;;;4839706;29;20049;-76
2021/12/07 04:22:27;;;;;;;8.98;3.83;;;;;;;;;;4836918;29;20034;-76
2021/12/07 04:24:53;;;;;;;9.43;4.22;;;;;;;;;;4834687;29;20128;-76
2021/12/07 04:27:19;;;;;;;8.95;4.22;;;;;;;;;;4835804;29;20104;-75
2021/12/07 04:29:45;;;;;;;12.20;5.40;;;;;;;;;;4835043;29;20037;-76
2021/12/07 04:32:11;;;;;;;12.52;6.05;;;;;;;;;;4834893;29;20031;-76
2021/12/07 04:34:38;;;;;;;10.30;5.13;;;;;;;;;;4833071;29;20709;-76
2021/12/07 04:37:05;;;;;;;14.75;7.30;;;;;;;;;;4831819;29;20491;-76
2021/12/07 04:39:31;;;;;;;10.88;5.88;;;;;;;;;;4838304;29;20069;-76
2021/12/07 04:41:57;;;;;;;6.63;3.47;;;;;;;;;;4840968;29;20030;-76
2021/12/07 04:44:23;;;;;;;9.95;4.50;;;;;;;;;;4838237;29;20072;-76
2021/12/07 04:47:05;;;;;;;9.25;4.97;;;;;;;;;;4840942;29;20032;-76
2021/12/07 04:50:01;;;;;;;9.90;4.43;;;;;;;;;;4832871;29;20034;-76
2021/12/07 04:57:56;;;;;;;12.70;7.82;;;;;;;;;;4833090;29;20062;-76
2021/12/07 05:00:24;;;;;;;9.73;5.97;;;;;;;;;;4835511;29;20143;-76
2021/12/07 05:02:55;;;;;;;10.10;5.32;;;;;;;;;;4835674;29;20049;-76
2021/12/07 05:05:23;;;;;;;8.00;5.23;;;;;;;;;;4838143;29;20772;-76
2021/12/07 05:07:53;;;;;;;8.38;5.65;;;;;;;;;;4839650;29;20025;-76
2021/12/07 05:10:30;;;;;;;8.20;4.45;;;;;;;;;;4838339;29;20037;-76
2021/12/07 05:16:01;;;;;;;9.00;5.15;;;;;;;;;;4832650;29;20050;-76
2021/12/07 05:24:00;;;;;;;9.52;5.85;;;;;;;;;;4833764;29;20046;-76
2021/12/07 05:40:06;;;;;;;11.00;6.15;;;;;;;;;;4833153;29;20087;-76
2021/12/07 05:42:32;;;;;;;9.05;5.32;;;;;;;;;;4832466;29;20030;-76
2021/12/07 05:44:58;;;;;;;8.55;5.10;;;;;;;;;;4832006;29;20045;-76
2021/12/07 05:47:24;;;;;;;9.45;5.20;;;;;;;;;;4832583;29;20026;-76
2021/12/07 05:49:50;;;;;;;11.43;5.72;;;;;;;;;;4832418;29;20133;-76
2021/12/07 05:52:16;;;;;;;9.70;5.15;;;;;;;;;;4829333;29;20041;-76
2021/12/07 05:54:42;;;;;;;7.60;4.32;;;;;;;;;;4834106;29;20396;-76
2021/12/07 05:57:08;;;;;;;7.78;4.75;;;;;;;;;;4833836;29;20441;-76
2021/12/07 05:59:34;;;;;;;15.98;9.05;;;;;;;;;;4833425;29;20046;-76
2021/12/07 06:02:01;;;;;;;15.80;8.52;;;;;;;;;;4829536;29;20550;-76
2021/12/07 06:04:30;;;;;;;13.15;8.48;;;;;;;;;;4831409;29;20054;-76
2021/12/07 06:06:56;;;;;;;15.60;8.60;;;;;;;;;;4831787;29;20500;-76
2021/12/07 06:09:22;;;;;;;13.18;8.93;;;;;;;;;;4836443;29;20050;-76
2021/12/07 06:11:50;;;;;;;13.38;8.13;;;;;;;;;;4832171;29;20054;-76
2021/12/07 06:14:19;;;;;;;13.55;9.05;;;;;;;;;;4832275;29;20045;-76
2021/12/07 06:16:45;;;;;;;13.63;8.05;;;;;;;;;;4848054;29;20044;-76
2021/12/07 06:19:11;;;;;;;18.90;9.95;;;;;;;;;;4844178;29;20054;-76
2021/12/07 06:21:37;;;;;;;21.05;10.90;;;;;;;;;;4839322;29;20037;-76
2021/12/07 06:24:03;;;;;;;32.15;15.43;;;;;;;;;;4830185;29;20690;-76
2021/12/07 06:26:29;;;;;;;21.23;11.15;;;;;;;;;;4827732;29;20137;-76
2021/12/07 06:28:55;;;;;;;16.45;8.00;;;;;;;;;;4838315;29;20436;-76
2021/12/07 06:31:21;;;;;;;13.60;7.57;;;;;;;;;;4822723;29;20034;-76
2021/12/07 06:33:47;;;;;;;13.00;7.10;;;;;;;;;;4828938;29;20790;-76
2021/12/07 06:36:14;;;;;;;12.75;6.53;;;;;;;;;;4834935;29;20775;-76
2021/12/07 06:38:41;;;;;;;10.00;6.68;;;;;;;;;;4838626;29;20038;-75
2021/12/07 06:41:07;;;;;;;10.73;5.47;;;;;;;;;;4838785;29;20053;-76
2021/12/07 06:43:33;;;;;;;14.88;7.20;;;;;;;;;;4838321;29;20037;-76
2021/12/07 06:45:59;;;;;;;10.35;5.50;;;;;;;;;;4838822;29;20620;-76
2021/12/07 06:48:25;;;;;;;9.63;5.20;;;;;;;;;;4852182;29;20112;-76
2021/12/07 06:50:51;;;;;;;9.48;5.20;;;;;;;;;;4849604;29;20121;-76
2021/12/07 06:53:18;;;;;;;11.30;6.63;;;;;;;;;;4837639;29;20106;-76
2021/12/07 06:55:44;;;;;;;10.88;6.53;;;;;;;;;;4835587;29;20042;-76
2021/12/07 06:58:10;;;;;;;14.05;7.13;;;;;;;;;;4837644;29;20042;-76
2021/12/07 07:00:37;;;;;;;15.93;8.23;;;;;;;;;;4837850;29;20623;-76
2021/12/07 07:03:03;;;;;;;12.48;6.38;;;;;;;;;;4826192;29;20038;-76
2021/12/07 07:05:30;;;;;;;21.52;9.98;;;;;;;;;;4823535;29;20043;-76
2021/12/07 07:07:56;;;;;;;21.05;11.15;;;;;;;;;;4830728;29;20125;-76
2021/12/07 07:10:22;;;;;;;17.58;9.02;;;;;;;;;;4835681;29;20075;-76
2021/12/07 07:12:48;;;;;;;20.90;8.63;;;;;;;;;;4838085;29;20021;-75
2021/12/07 07:15:15;;;;;;;15.68;7.50;;;;;;;;;;4831918;29;20050;-76
2021/12/07 07:17:41;;;;;;;17.73;8.20;;;;;;;;;;4825112;29;20057;-76
2021/12/07 07:20:10;;;;;;;15.23;7.93;;;;;;;;;;4838822;29;20041;-76
2021/12/07 07:22:36;;;;;;;12.27;6.55;;;;;;;;;;4824662;29;20022;-76
2021/12/07 07:25:02;;;;;;;14.57;8.18;;;;;;;;;;4826278;29;20407;-76
2021/12/07 07:27:29;;;;;;;19.42;9.50;;;;;;;;;;4837295;29;20090;-75
2021/12/07 07:29:55;;;;;;;17.73;10.05;;;;;;;;;;4825795;29;20129;-76
2021/12/07 07:32:21;;;;;;;17.85;9.93;;;;;;;;;;4844429;29;20096;-75
2021/12/07 07:34:47;;;;;;;15.45;8.55;;;;;;;;;;4837384;29;20041;-76
2021/12/07 07:37:13;;;;;;;14.88;8.05;;;;;;;;;;4844134;29;20104;-76
2021/12/07 07:39:41;;;;;;;15.85;10.07;;;;;;;;;;4843963;29;20076;-76
2021/12/07 07:42:07;;;;;;;16.85;9.95;;;;;;;;;;4832383;29;20031;-76
2021/12/07 07:44:33;;;;;;;17.83;10.13;;;;;;;;;;4838078;29;20073;-76
2021/12/07 07:46:59;;;;;;;20.02;11.73;;;;;;;;;;4844840;29;20068;-75
2021/12/07 07:49:25;;;;;;;24.27;12.18;;;;;;;;;;4833689;29;20672;-76
2021/12/07 07:51:52;;;;;;;21.73;12.00;;;;;;;;;;4841206;29;20439;-76
2021/12/07 07:54:18;;;;;;;26.08;16.20;;;;;;;;;;4829078;29;20431;-76
2021/12/07 07:56:44;;;;;;;23.15;13.55;;;;;;;;;;4840275;29;20030;-75
2021/12/07 07:59:10;;;;;;;20.48;13.30;;;;;;;;;;4834543;29;20046;-76
2021/12/07 08:01:36;;;;;;;16.75;9.13;;;;;;;;;;4833444;29;20045;-76
2021/12/07 08:04:03;;;;;;;12.50;6.40;;;;;;;;;;4837046;29;20125;-75
2021/12/07 08:06:29;;;;;;;18.75;10.15;;;;;;;;;;4843252;29;20116;-75
2021/12/07 08:08:56;;;;;;;27.05;14.52;;;;;;;;;;4841863;29;20022;-76
2021/12/07 08:11:22;;;;;;;24.13;13.52;;;;;;;;;;4840113;29;20434;-76
2021/12/07 08:13:48;;;;;;;19.45;11.32;;;;;;;;;;4836066;29;20038;-76
2021/12/07 08:16:17;;;;;;;19.08;11.05;;;;;;;;;;4843506;29;20399;-76
2021/12/07 08:18:44;;;;;;;17.35;9.43;;;;;;;;;;4837210;29;20139;-76
2021/12/07 08:21:11;;;;;;;12.98;7.32;;;;;;;;;;4843115;29;20042;-76
2021/12/07 08:23:38;;;;;;;13.85;6.80;;;;;;;;;;4836536;29;20110;-76
2021/12/07 08:26:04;;;;;;;14.40;7.43;;;;;;;;;;4841406;29;20084;-76
2021/12/07 08:28:30;;;;;;;16.13;8.93;;;;;;;;;;4839007;29;20041;-76
2021/12/07 08:30:56;;;;;;;19.85;11.60;;;;;;;;;;4836830;29;20042;-76
2021/12/07 08:33:22;;;;;;;19.88;11.02;;;;;;;;;;4843975;29;20500;-76
2021/12/07 08:35:49;;;;;;;18.20;10.32;;;;;;;;;;4840427;29;20057;-76
2021/12/07 08:38:15;;;;;;;20.00;11.00;;;;;;;;;;4837142;29;20061;-76
2021/12/07 08:40:42;;;;;;;18.35;10.23;;;;;;;;;;4835898;29;20042;-76
2021/12/07 08:43:11;;;;;;;15.23;8.35;;;;;;;;;;4841414;29;20030;-76
2021/12/07 08:45:38;;;;;;;17.33;9.50;;;;;;;;;;4834075;29;20114;-76
2021/12/07 08:48:04;;;;;;;16.45;9.45;;;;;;;;;;4830177;29;20058;-76
2021/12/07 08:50:31;;;;;;;13.85;8.05;;;;;;;;;;4836778;29;20037;-76
2021/12/07 08:53:02;;;;;;;18.90;9.40;;;;;;;;;;4841272;29;20124;-76
2021/12/07 09:00:58;;;;;;;12.45;7.40;;;;;;;;;;4832691;29;20064;-76
2021/12/07 09:03:24;;;;;;;16.73;7.90;;;;;;;;;;4831214;29;20042;-76
2021/12/07 09:05:50;;;;;;;13.68;7.82;;;;;;;;;;4826118;29;20041;-76
2021/12/07 09:08:16;;;;;;;18.30;10.18;;;;;;;;;;4834910;29;20039;-76
2021/12/07 09:10:43;;;;;;;16.02;9.48;;;;;;;;;;4830613;29;20143;-76
2021/12/07 09:13:09;;;;;;;12.18;7.70;;;;;;;;;;4831533;29;20030;-76
2021/12/07 09:15:35;;;;;;;15.90;8.07;;;;;;;;;;4831188;29;20600;-76
2021/12/07 09:18:01;;;;;;;15.70;9.73;;;;;;;;;;4836647;29;20041;-76
2021/12/07 09:20:29;;;;;;;14.95;7.43;;;;;;;;;;4832866;29;20049;-76
2021/12/07 09:22:55;;;;;;;18.90;8.32;;;;;;;;;;4822384;29;20077;-76
2021/12/07 09:25:21;;;;;;;15.32;7.72;;;;;;;;;;4833982;29;20065;-76
2021/12/07 09:27:47;;;;;;;15.55;10.50;;;;;;;;;;4840777;29;20030;-76
2021/12/07 09:30:15;;;;;;;18.63;9.90;;;;;;;;;;4837590;29;20038;-76
2021/12/07 09:32:41;;;;;;;21.40;10.48;;;;;;;;;;4830486;29;20033;-76
2021/12/07 09:35:07;;;;;;;18.70;11.02;;;;;;;;;;4830924;29;20074;-76
2021/12/07 09:37:34;;;;;;;18.50;9.35;;;;;;;;;;4831527;29;20030;-76
2021/12/07 09:40:00;;;;;;;13.30;7.30;;;;;;;;;;4828943;29;20121;-76
2021/12/07 09:42:26;;;;;;;13.48;6.82;;;;;;;;;;4840525;29;20036;-76
2021/12/07 09:44:52;;;;;;;13.68;7.22;;;;;;;;;;4830299;29;20053;-76
2021/12/07 09:47:19;;;;;;;15.45;7.63;;;;;;;;;;4826828;29;20030;-76
2021/12/07 09:49:45;;;;;;;13.73;7.18;;;;;;;;;;4825740;29;20042;-76
2021/12/07 09:52:11;;;;;;;15.20;8.38;;;;;;;;;;4821273;29;20574;-76
2021/12/07 09:54:37;;;;;;;13.55;6.85;;;;;;;;;;4836501;29;20056;-76
2021/12/07 09:57:04;;;;;;;12.07;7.50;;;;;;;;;;4836144;29;20045;-76
2021/12/07 09:59:31;;;;;;;13.57;7.82;;;;;;;;;;4835144;29;20127;-76
2021/12/07 10:01:57;;;;;;;14.65;7.68;;;;;;;;;;4832234;29;20030;-76
2021/12/07 10:04:27;;;;;;;13.27;7.18;;;;;;;;;;4838355;29;20124;-76
2021/12/07 10:06:54;;;;;;;11.82;6.22;;;;;;;;;;4839963;29;20541;-76
2021/12/07 10:09:20;;;;;;;9.15;5.07;;;;;;;;;;4837937;29;20042;-76
2021/12/07 10:11:49;;;;;;;14.32;7.82;;;;;;;;;;4839423;29;20057;-76
2021/12/07 10:14:15;;;;;;;13.23;6.38;;;;;;;;;;4839077;29;20481;-76
2021/12/07 10:16:45;;;;;;;14.23;5.75;;;;;;;;;;4839426;29;20082;-76
2021/12/07 10:19:15;;;;;;;10.40;5.22;;;;;;;;;;4836216;29;20037;-76
2021/12/07 10:21:43;;;;;;;9.70;4.82;;;;;;;;;;4829552;29;20151;-75
2021/12/07 10:24:11;;;;;;;9.65;4.80;;;;;;;;;;4838543;29;20430;-76
2021/12/07 10:26:42;;;;;;;10.35;4.93;;;;;;;;;;4839275;29;20033;-76
2021/12/07 10:29:09;;;;;;;9.63;3.63;;;;;;;;;;4834755;29;20072;-76
2021/12/07 10:31:37;;;;;;;6.88;2.72;;;;;;;;;;4830594;29;20715;-76
2021/12/07 10:34:05;;;;;;;12.15;6.40;;;;;;;;;;4835751;29;20035;-76
2021/12/07 10:36:37;;;;;;;20.70;13.55;;;;;;;;;;4828634;29;20034;-76
2021/12/07 10:39:06;;;;;;;10.93;3.85;;;;;;;;;;4837755;29;20046;-76
2021/12/07 10:41:34;;;;;;;17.60;6.03;;;;;;;;;;4827061;29;20512;-76
2021/12/07 10:44:03;;;;;;;15.07;5.20;;;;;;;;;;4822743;29;20038;-76
2021/12/07 10:46:38;;;;;;;19.92;7.63;;;;;;;;;;4829784;29;20078;-76
2021/12/07 10:49:13;;;;;;;11.43;4.65;;;;;;;;;;4829892;29;20488;-76
2021/12/07 10:51:40;;;;;;;10.52;4.80;;;;;;;;;;4837934;29;20041;-76
2021/12/07 10:54:06;;;;;;;7.82;3.30;;;;;;;;;;4829954;29;20037;-76
2021/12/07 10:56:36;;;;;;;5.22;2.10;;;;;;;;;;4828848;29;20039;-76
2021/12/07 10:59:04;;;;;;;9.80;2.42;;;;;;;;;;4838651;29;20046;-76
2021/12/07 11:01:37;;;;;;;6.95;2.55;;;;;;;;;;4835875;29;20050;-76
2021/12/07 11:04:22;;;;;;;8.05;2.35;;;;;;;;;;4829332;29;20034;-76
2021/12/07 11:07:07;;;;;;;8.50;3.25;;;;;;;;;;4832528;29;20054;-76
2021/12/07 11:09:51;;;;;;;6.72;1.75;;;;;;;;;;4838776;29;20067;-76
2021/12/07 11:12:19;;;;;;;4.15;1.50;;;;;;;;;;4832634;29;20037;-76
2021/12/07 11:14:53;;;;;;;4.80;2.28;;;;;;;;;;4827660;29;20045;-76
2021/12/07 11:17:26;;;;;;;6.15;2.45;;;;;;;;;;4830852;29;20033;-76
2021/12/07 11:19:53;;;;;;;8.05;2.38;;;;;;;;;;4838863;29;20556;-76
2021/12/07 11:22:21;;;;;;;9.77;4.00;;;;;;;;;;4837082;29;20038;-76
2021/12/07 11:24:47;;;;;;;9.43;4.38;;;;;;;;;;4828501;29;20050;-76
2021/12/07 11:30:17;;;;;;;7.65;2.92;;;;;;;;;;4837152;29;20053;-76
2021/12/07 11:32:55;;;;;;;9.13;2.10;;;;;;;;;;4834710;29;20079;-76
2021/12/07 11:35:33;;;;;;;10.02;4.90;;;;;;;;;;4830657;29;20039;-76
2021/12/07 11:38:00;;;;;;;12.23;3.97;;;;;;;;;;4829851;29;20037;-76
2021/12/07 11:40:28;;;;;;;5.65;1.40;;;;;;;;;;4820827;29;20070;-76
2021/12/07 11:42:54;;;;;;;4.53;1.35;;;;;;;;;;4830364;29;20034;-76
2021/12/07 11:45:31;;;;;;;4.55;1.50;;;;;;;;;;4822258;29;20479;-76
2021/12/07 11:48:03;;;;;;;6.10;2.38;;;;;;;;;;4837863;29;20030;-76
2021/12/07 11:50:29;;;;;;;;;;;;;;;;;;4832036;29;20855;-76
2021/12/07 11:52:57;;;;;;;3.63;1.20;;;;;;;;;;4835133;29;19916;-76
2021/12/07 11:55:24;;;;;;;2.88;0.80;;;;;;;;;;4838385;29;20034;-76
2021/12/07 11:57:50;;;;;;;3.17;1.20;;;;;;;;;;4835302;29;20025;-76
2021/12/07 12:00:19;;;;;;;4.75;1.42;;;;;;;;;;4834695;29;20132;-76
2021/12/07 12:02:45;;;;;;;3.33;0.90;;;;;;;;;;4825967;29;20023;-76
2021/12/07 12:05:11;;;;;;;3.60;0.90;;;;;;;;;;4824361;29;20133;-76
2021/12/07 12:07:41;;;;;;;4.47;1.50;;;;;;;;;;4836399;29;20062;-76
2021/12/07 12:10:07;;;;;;;6.05;1.15;;;;;;;;;;4838064;29;20791;-75
2021/12/07 12:12:55;;;;;;;8.20;0.88;;;;;;;;;;4838417;29;20026;-76
2021/12/07 12:15:46;;;;;;;3.13;0.80;;;;;;;;;;4829067;29;20057;-76
2021/12/07 12:18:24;;;;;;;3.75;0.70;;;;;;;;;;4833681;29;20037;-76
2021/12/07 12:20:56;;;;;;;3.30;1.20;;;;;;;;;;4823899;29;20046;-76
2021/12/07 12:23:29;;;;;;;4.60;1.05;;;;;;;;;;4841147;29;20571;-76
2021/12/07 12:26:02;;;;;;;7.00;1.42;;;;;;;;;;4841742;29;20038;-76
2021/12/07 12:28:38;;;;;;;4.30;0.60;;;;;;;;;;4841572;29;20057;-76
2021/12/07 12:31:06;;;;;;;4.40;0.60;;;;;;;;;;4836202;29;20042;-76
2021/12/07 12:33:44;;;;;;;3.80;0.60;;;;;;;;;;4831127;29;20033;-76
2021/12/07 12:36:10;;;;;;;6.68;1.67;;;;;;;;;;4835034;29;20046;-76
2021/12/07 12:38:36;;;;;;;4.72;1.30;;;;;;;;;;4832447;29;20859;-76
2021/12/07 12:41:08;;;;;;;9.93;3.20;;;;;;;;;;4842687;29;20966;-76
2021/12/07 12:43:40;;;;;;;4.13;0.80;;;;;;;;;;4842840;29;20113;-76
2021/12/07 12:46:07;;;;;;;2.67;0.68;;;;;;;;;;4842494;29;20283;-76
2021/12/07 12:48:33;;;;;;;9.18;3.17;;;;;;;;;;4841618;29;20040;-76
2021/12/07 12:50:59;;;;;;;6.32;2.15;;;;;;;;;;4840581;29;20072;-76
2021/12/07 12:53:30;;;;;;;6.40;1.20;;;;;;;;;;4833931;29;20122;-76
2021/12/07 12:55:57;;;;;;;6.93;2.10;;;;;;;;;;4830643;29;20166;-76
2021/12/07 12:58:30;;;;;;;11.13;4.60;;;;;;;;;;4831404;29;20042;-76
2021/12/07 13:01:15;;;;;;;14.23;7.43;;;;;;;;;;4822850;29;20082;-76
2021/12/07 13:03:46;;;;;;;12.27;4.72;;;;;;;;;;4822699;29;20042;-76
2021/12/07 13:06:21;;;;;;;5.03;0.93;;;;;;;;;;4841370;29;20042;-76
2021/12/07 13:08:57;;;;;;;4.97;1.35;;;;;;;;;;4841202;29;20116;-76
2021/12/07 13:11:43;;;;;;;3.40;0.90;;;;;;;;;;4835810;29;20069;-76
2021/12/07 13:14:27;;;;;;;7.05;1.35;;;;;;;;;;4825862;29;20073;-76
2021/12/07 13:17:07;;;;;;;9.93;2.95;;;;;;;;;;4838871;29;20048;-76
2021/12/07 13:19:53;;;;;;;11.48;4.47;;;;;;;;;;4838119;29;20452;-76
2021/12/07 13:22:19;;;;;;;11.32;4.47;;;;;;;;;;4833787;29;20038;-76
2021/12/07 13:24:48;;;;;;;11.15;2.92;;;;;;;;;;4838371;29;20380;-76
2021/12/07 13:27:15;;;;;;;8.15;2.08;;;;;;;;;;4827449;29;20038;-76
2021/12/07 13:29:52;;;;;;;5.80;1.58;;;;;;;;;;4821835;29;20043;-76
2021/12/07 13:32:18;;;;;;;2.80;0.60;;;;;;;;;;4824551;29;20038;-76
2021/12/07 13:34:44;;;;;;;3.33;0.50;;;;;;;;;;4834502;29;20056;-76
2021/12/07 13:37:11;;;;;;;3.10;0.80;;;;;;;;;;4822249;29;20058;-76
2021/12/07 13:39:44;;;;;;;4.00;0.75;;;;;;;;;;4838350;29;20042;-76
2021/12/07 13:42:20;;;;;;;5.28;0.80;;;;;;;;;;4840418;29;20508;-77
2021/12/07 13:44:58;;;;;;;2.00;0.32;;;;;;;;;;4830354;29;20034;-76
2021/12/07 13:47:29;;;;;;;11.48;1.10;;;;;;;;;;4836034;29;20101;-76
2021/12/07 13:50:06;;;;;;;3.35;0.82;;;;;;;;;;4834129;29;20087;-76
2021/12/07 13:52:35;;;;;;;5.30;1.02;;;;;;;;;;4824777;29;20052;-76
2021/12/07 13:55:03;;;;;;;4.88;0.95;;;;;;;;;;4839756;29;20050;-76
2021/12/07 13:57:30;;;;;;;4.78;0.90;;;;;;;;;;4826822;29;20038;-76
2021/12/07 14:00:05;;;;;;;3.35;0.60;;;;;;;;;;4836322;29;20902;-76
2021/12/07 14:02:32;;;;;;;5.45;0.90;;;;;;;;;;4839486;29;20515;-76
2021/12/07 14:05:18;;;;;;;5.03;0.98;;;;;;;;;;4835305;29;20045;-76
2021/12/07 14:07:45;;;;;;;2.75;1.00;;;;;;;;;;4840001;29;20099;-76
2021/12/07 14:10:13;;;;;;;2.38;0.70;;;;;;;;;;4827163;29;20042;-76
2021/12/07 14:12:39;;;;;;;4.72;1.20;;;;;;;;;;4826560;29;20037;-76
2021/12/07 14:15:07;;;;;;;9.35;3.60;;;;;;;;;;4835031;29;20049;-76
2021/12/07 14:17:45;;;;;;;8.43;2.60;;;;;;;;;;4838611;29;20040;-76
2021/12/07 14:20:12;;;;;;;14.45;5.97;;;;;;;;;;4836708;29;20066;-76
2021/12/07 14:22:38;;;;;;;8.40;1.60;;;;;;;;;;4825936;29;20046;-76
2021/12/07 14:25:06;;;;;;;6.93;3.00;;;;;;;;;;4837172;29;20496;-76
2021/12/07 14:27:33;;;;;;;2.58;0.63;;;;;;;;;;4839311;29;20044;-76
2021/12/07 14:29:59;;;;;;;3.03;0.60;;;;;;;;;;4828413;29;20044;-76
2021/12/07 14:32:25;;;;;;;2.90;0.40;;;;;;;;;;4830946;29;20025;-76
2021/12/07 14:34:51;;;;;;;2.88;0.63;;;;;;;;;;4832729;29;20064;-76
2021/12/07 14:37:18;;;;;;;2.67;0.60;;;;;;;;;;4828597;29;20066;-76
2021/12/07 14:39:44;;;;;;;3.85;0.52;;;;;;;;;;4837444;29;20042;-76
2021/12/07 14:42:12;;;;;;;2.45;0.52;;;;;;;;;;4839392;29;20188;-76
2021/12/07 14:44:39;;;;;;;3.63;0.60;;;;;;;;;;4838689;29;20489;-76
2021/12/07 14:47:07;;;;;;;2.97;0.80;;;;;;;;;;4831853;29;20812;-76
2021/12/07 14:49:44;;;;;;;4.78;1.20;;;;;;;;;;4836819;29;20833;-76
2021/12/07 14:52:14;;;;;;;3.22;1.10;;;;;;;;;;4821459;29;20070;-76
2021/12/07 14:54:41;;;;;;;9.57;0.80;;;;;;;;;;4834859;29;20045;-76
2021/12/07 14:57:07;;;;;;;10.77;1.80;;;;;;;;;;4829947;29;20038;-76
2021/12/07 14:59:35;;;;;;;13.13;3.38;;;;;;;;;;4835462;29;20040;-76
2021/12/07 15:02:01;;;;;;;62.53;13.88;;;;;;;;;;4838827;29;20042;-76
2021/12/07 15:04:28;;;;;;;38.78;10.43;;;;;;;;;;4838542;29;20155;-76
2021/12/07 15:07:02;;;;;;;28.95;7.65;;;;;;;;;;4823796;29;20034;-76
2021/12/07 15:09:32;;;;;;;28.65;8.05;;;;;;;;;;4829391;29;20034;-76
2021/12/07 15:11:58;;;;;;;12.20;2.83;;;;;;;;;;4826945;29;20034;-76
2021/12/07 15:14:26;;;;;;;14.80;2.80;;;;;;;;;;4832013;29;20038;-76
2021/12/07 15:16:57;;;;;;;8.38;2.70;;;;;;;;;;4831138;29;20695;-76
2021/12/07 15:19:23;;;;;;;3.35;1.00;;;;;;;;;;4834339;29;20046;-76
2021/12/07 15:21:49;;;;;;;7.03;1.15;;;;;;;;;;4836712;29;20034;-76
2021/12/07 15:24:19;;;;;;;2.95;0.70;;;;;;;;;;4838722;29;20042;-76
2021/12/07 15:26:46;;;;;;;5.78;1.10;;;;;;;;;;4838261;29;20026;-76
2021/12/07 15:29:16;;;;;;;4.80;1.02;;;;;;;;;;4838569;29;20787;-76
2021/12/07 15:31:42;;;;;;;7.20;0.90;;;;;;;;;;4828569;29;20045;-76
2021/12/07 15:34:09;;;;;;;5.15;1.00;;;;;;;;;;4836601;29;20034;-76
2021/12/07 15:36:37;;;;;;;5.30;1.45;;;;;;;;;;4831541;29;20521;-76
2021/12/07 15:39:18;;;;;;;5.50;1.98;;;;;;;;;;4830060;29;20788;-76
2021/12/07 15:41:46;;;;;;;9.00;1.75;;;;;;;;;;4825782;29;20049;-76
2021/12/07 15:44:12;;;;;;;4.05;0.90;;;;;;;;;;4837786;29;20099;-76
2021/12/07 15:46:49;;;;;;;3.80;0.95;;;;;;;;;;4834736;29;20049;-76
2021/12/07 15:49:21;;;;;;;5.60;1.67;;;;;;;;;;4838565;29;20045;-76
2021/12/07 15:51:49;;;;;;;15.57;3.53;;;;;;;;;;4838658;29;20030;-76
2021/12/07 15:54:15;;;;;;;21.42;5.53;;;;;;;;;;4841827;29;20089;-76
2021/12/07 15:56:41;;;;;;;19.08;5.25;;;;;;;;;;4842337;29;20167;-76
2021/12/07 15:59:14;;;;;;;11.40;3.70;;;;;;;;;;4835897;29;20109;-76
2021/12/07 16:01:41;;;;;;;11.60;3.97;;;;;;;;;;4831989;29;20058;-76
2021/12/07 16:04:07;;;;;;;8.98;4.28;;;;;;;;;;4834146;29;20042;-76
2021/12/07 16:06:35;;;;;;;11.00;4.43;;;;;;;;;;4823465;29;20576;-76
2021/12/07 16:09:13;;;;;;;16.27;6.60;;;;;;;;;;4833620;29;20038;-76
2021/12/07 16:11:39;;;;;;;12.57;5.28;;;;;;;;;;4831456;29;20034;-76
2021/12/07 16:14:06;;;;;;;11.73;5.35;;;;;;;;;;4823169;29;20034;-76
2021/12/07 16:16:32;;;;;;;11.00;4.85;;;;;;;;;;4823414;29;20034;-76
2021/12/07 16:18:58;;;;;;;11.73;5.50;;;;;;;;;;4841085;29;20046;-76